sensor_id;sensor_type;location;lat;lon;timestamp;pressure;altitude;pressure_sealevel;temperature;humidity
77431;BME280;66498;48.564;19.272;2023-07-16T00:00:17;97619.81;;;18.41;92.53
77431;BME280;66498;48.564;19.272;2023-07-16T00:02:44;97618.53;;;18.18;93.85
77431;BME280;66498;48.564;19.272;2023-07-16T00:05:10;97617.72;;;18.12;94.30
77431;BME280;66498;48.564;19.272;2023-07-16T00:07:35;97609.75;;;18.12;94.25
77431;BME280;66498;48.564;19.272;2023-07-16T00:10:01;97609.13;;;18.61;90.72
77431;BME280;66498;48.564;19.272;2023-07-16T00:12:27;97605.16;;;18.59;90.07
77431;BME280;66498;48.564;19.272;2023-07-16T00:14:52;97620.34;;;18.43;90.63
77431;BME280;66498;48.564;19.272;2023-07-16T00:17:18;97615.34;;;18.06;93.13
77431;BME280;66498;48.564;19.272;2023-07-16T00:19:43;97615.09;;;18.17;92.23
77431;BME280;66498;48.564;19.272;2023-07-16T00:22:09;97607.13;;;17.92;93.47
77431;BME280;66498;48.564;19.272;2023-07-16T00:24:34;97614.56;;;17.80;94.65
77431;BME280;66498;48.564;19.272;2023-07-16T00:27:00;97612.44;;;17.77;94.52
77431;BME280;66498;48.564;19.272;2023-07-16T00:29:25;97604.44;;;17.61;95.44
77431;BME280;66498;48.564;19.272;2023-07-16T00:31:51;97593.53;;;17.63;94.93
77431;BME280;66498;48.564;19.272;2023-07-16T00:34:16;97594.63;;;17.57;95.10
77431;BME280;66498;48.564;19.272;2023-07-16T00:36:41;97603.09;;;17.43;95.85
77431;BME280;66498;48.564;19.272;2023-07-16T00:39:07;97591.41;;;17.29;95.97
77431;BME280;66498;48.564;19.272;2023-07-16T00:41:32;97589.28;;;17.41;94.95
77431;BME280;66498;48.564;19.272;2023-07-16T00:43:58;97587.16;;;17.48;94.79
77431;BME280;66498;48.564;19.272;2023-07-16T00:46:24;97583.72;;;17.68;93.07
77431;BME280;66498;48.564;19.272;2023-07-16T00:48:50;97597.28;;;17.67;92.95
77431;BME280;66498;48.564;19.272;2023-07-16T00:51:16;97593.53;;;17.42;94.30
77431;BME280;66498;48.564;19.272;2023-07-16T00:53:42;97601.53;;;17.73;91.83
77431;BME280;66498;48.564;19.272;2023-07-16T00:56:09;97597.25;;;17.26;93.66
77431;BME280;66498;48.564;19.272;2023-07-16T00:58:35;97602.19;;;16.92;95.33
77431;BME280;66498;48.564;19.272;2023-07-16T01:01:00;97609.47;;;16.69;97.39
77431;BME280;66498;48.564;19.272;2023-07-16T01:03:26;97607.97;;;16.78;97.76
77431;BME280;66498;48.564;19.272;2023-07-16T01:08:46;97603.00;;;17.02;95.67
77431;BME280;66498;48.564;19.272;2023-07-16T01:11:12;97600.09;;;17.04;95.89
77431;BME280;66498;48.564;19.272;2023-07-16T01:13:39;97598.03;;;17.26;94.38
77431;BME280;66498;48.564;19.272;2023-07-16T01:16:05;97595.03;;;16.97;95.65
77431;BME280;66498;48.564;19.272;2023-07-16T01:18:30;97597.44;;;16.99;96.07
77431;BME280;66498;48.564;19.272;2023-07-16T01:20:56;97592.13;;;16.99;96.41
77431;BME280;66498;48.564;19.272;2023-07-16T01:26:36;97594.22;;;16.92;96.30
77431;BME280;66498;48.564;19.272;2023-07-16T01:29:47;97591.16;;;17.36;93.63
77431;BME280;66498;48.564;19.272;2023-07-16T01:32:15;97591.91;;;17.21;94.27
77431;BME280;66498;48.564;19.272;2023-07-16T01:34:42;97593.50;;;16.54;96.73
77431;BME280;66498;48.564;19.272;2023-07-16T01:37:09;97595.34;;;16.53;96.76
77431;BME280;66498;48.564;19.272;2023-07-16T01:39:34;97591.78;;;16.75;96.50
77431;BME280;66498;48.564;19.272;2023-07-16T01:42:01;97583.44;;;16.56;97.23
77431;BME280;66498;48.564;19.272;2023-07-16T01:44:27;97596.47;;;16.58;96.40
77431;BME280;66498;48.564;19.272;2023-07-16T01:49:37;97589.59;;;16.14;97.65
77431;BME280;66498;48.564;19.272;2023-07-16T01:52:04;97588.88;;;16.24;98.42
77431;BME280;66498;48.564;19.272;2023-07-16T01:54:31;97580.88;;;16.19;98.95
77431;BME280;66498;48.564;19.272;2023-07-16T01:56:56;97576.31;;;16.09;99.01
77431;BME280;66498;48.564;19.272;2023-07-16T01:59:22;97576.72;;;16.33;98.28
77431;BME280;66498;48.564;19.272;2023-07-16T02:01:47;97579.41;;;16.38;97.63
77431;BME280;66498;48.564;19.272;2023-07-16T02:04:13;97582.22;;;16.26;98.27
77431;BME280;66498;48.564;19.272;2023-07-16T02:06:38;97576.53;;;16.50;97.71
77431;BME280;66498;48.564;19.272;2023-07-16T02:09:04;97582.25;;;16.84;95.95
77431;BME280;66498;48.564;19.272;2023-07-16T02:11:29;97580.06;;;16.71;95.35
77431;BME280;66498;48.564;19.272;2023-07-16T02:13:55;97575.44;;;16.46;98.21
77431;BME280;66498;48.564;19.272;2023-07-16T02:16:20;97573.34;;;16.48;98.40
77431;BME280;66498;48.564;19.272;2023-07-16T02:18:46;97570.09;;;16.36;99.02
77431;BME280;66498;48.564;19.272;2023-07-16T02:21:11;97579.41;;;16.43;99.76
77431;BME280;66498;48.564;19.272;2023-07-16T02:23:37;97578.94;;;16.56;98.84
77431;BME280;66498;48.564;19.272;2023-07-16T02:26:02;97579.59;;;16.79;95.21
77431;BME280;66498;48.564;19.272;2023-07-16T02:28:28;97573.63;;;16.51;97.04
77431;BME280;66498;48.564;19.272;2023-07-16T02:30:53;97572.84;;;16.56;96.77
77431;BME280;66498;48.564;19.272;2023-07-16T02:33:19;97564.53;;;16.90;92.66
77431;BME280;66498;48.564;19.272;2023-07-16T02:35:48;97568.22;;;16.84;92.88
77431;BME280;66498;48.564;19.272;2023-07-16T02:38:15;97572.94;;;16.71;94.65
77431;BME280;66498;48.564;19.272;2023-07-16T02:40:44;97577.06;;;16.52;95.93
77431;BME280;66498;48.564;19.272;2023-07-16T02:43:11;97573.72;;;16.72;92.75
77431;BME280;66498;48.564;19.272;2023-07-16T02:45:37;97580.84;;;16.61;94.22
77431;BME280;66498;48.564;19.272;2023-07-16T02:48:02;97580.31;;;16.69;95.24
77431;BME280;66498;48.564;19.272;2023-07-16T02:50:28;97578.81;;;16.78;93.97
77431;BME280;66498;48.564;19.272;2023-07-16T02:52:53;97588.81;;;16.71;92.99
77431;BME280;66498;48.564;19.272;2023-07-16T02:55:19;97581.53;;;16.41;96.23
77431;BME280;66498;48.564;19.272;2023-07-16T02:57:44;97583.88;;;16.32;97.24
77431;BME280;66498;48.564;19.272;2023-07-16T03:00:10;97581.72;;;16.29;97.31
77431;BME280;66498;48.564;19.272;2023-07-16T03:02:35;97585.78;;;16.42;94.45
77431;BME280;66498;48.564;19.272;2023-07-16T03:05:01;97575.78;;;16.54;92.12
77431;BME280;66498;48.564;19.272;2023-07-16T03:07:26;97580.19;;;16.44;92.74
77431;BME280;66498;48.564;19.272;2023-07-16T03:09:52;97580.66;;;16.25;94.00
77431;BME280;66498;48.564;19.272;2023-07-16T03:12:17;97581.06;;;16.07;93.93
77431;BME280;66498;48.564;19.272;2023-07-16T03:14:43;97585.59;;;15.74;95.82
77431;BME280;66498;48.564;19.272;2023-07-16T03:17:08;97580.88;;;15.81;95.65
77431;BME280;66498;48.564;19.272;2023-07-16T03:19:34;97578.06;;;15.93;95.98
77431;BME280;66498;48.564;19.272;2023-07-16T03:21:59;97574.09;;;15.96;95.77
77431;BME280;66498;48.564;19.272;2023-07-16T03:24:25;97576.31;;;16.09;94.85
77431;BME280;66498;48.564;19.272;2023-07-16T03:26:50;97579.72;;;15.67;97.58
77431;BME280;66498;48.564;19.272;2023-07-16T03:29:16;97582.88;;;16.01;96.04
77431;BME280;66498;48.564;19.272;2023-07-16T03:31:41;97588.47;;;16.05;95.50
77431;BME280;66498;48.564;19.272;2023-07-16T03:34:07;97580.97;;;16.39;93.75
77431;BME280;66498;48.564;19.272;2023-07-16T03:36:32;97575.56;;;16.14;96.18
77431;BME280;66498;48.564;19.272;2023-07-16T03:38:58;97573.53;;;15.89;97.44
77431;BME280;66498;48.564;19.272;2023-07-16T03:41:23;97582.66;;;15.71;98.92
77431;BME280;66498;48.564;19.272;2023-07-16T03:43:48;97566.34;;;15.84;98.28
77431;BME280;66498;48.564;19.272;2023-07-16T03:46:14;97573.47;;;16.21;96.22
77431;BME280;66498;48.564;19.272;2023-07-16T03:48:39;97572.13;;;16.18;96.63
77431;BME280;66498;48.564;19.272;2023-07-16T03:51:05;97582.16;;;16.16;96.37
77431;BME280;66498;48.564;19.272;2023-07-16T03:53:30;97589.53;;;16.04;96.03
77431;BME280;66498;48.564;19.272;2023-07-16T03:55:56;97585.88;;;16.15;95.84
77431;BME280;66498;48.564;19.272;2023-07-16T03:58:21;97586.38;;;16.07;97.70
77431;BME280;66498;48.564;19.272;2023-07-16T04:00:48;97586.94;;;16.14;98.08
77431;BME280;66498;48.564;19.272;2023-07-16T04:03:13;97596.47;;;16.58;95.62
77431;BME280;66498;48.564;19.272;2023-07-16T04:05:39;97601.72;;;16.52;96.40
77431;BME280;66498;48.564;19.272;2023-07-16T04:08:04;97604.09;;;16.54;95.88
77431;BME280;66498;48.564;19.272;2023-07-16T04:10:30;97609.16;;;16.55;95.45
77431;BME280;66498;48.564;19.272;2023-07-16T04:12:55;97608.41;;;16.65;94.88
77431;BME280;66498;48.564;19.272;2023-07-16T04:15:21;97613.22;;;16.73;95.04
77431;BME280;66498;48.564;19.272;2023-07-16T04:17:46;97617.72;;;16.68;95.21
77431;BME280;66498;48.564;19.272;2023-07-16T04:20:12;97603.19;;;16.81;95.20
77431;BME280;66498;48.564;19.272;2023-07-16T04:22:37;97618.31;;;16.80;95.09
77431;BME280;66498;48.564;19.272;2023-07-16T04:25:03;97623.03;;;16.73;95.05
77431;BME280;66498;48.564;19.272;2023-07-16T04:27:29;97623.31;;;16.76;95.28
77431;BME280;66498;48.564;19.272;2023-07-16T04:29:54;97634.84;;;17.02;93.42
77431;BME280;66498;48.564;19.272;2023-07-16T04:32:20;97625.00;;;16.93;94.94
77431;BME280;66498;48.564;19.272;2023-07-16T04:34:45;97619.78;;;17.29;93.83
77431;BME280;66498;48.564;19.272;2023-07-16T04:37:11;97619.50;;;17.25;94.32
77431;BME280;66498;48.564;19.272;2023-07-16T04:39:36;97621.13;;;17.36;94.09
77431;BME280;66498;48.564;19.272;2023-07-16T04:42:02;97623.44;;;17.07;96.22
77431;BME280;66498;48.564;19.272;2023-07-16T04:44:27;97628.28;;;17.31;95.00
77431;BME280;66498;48.564;19.272;2023-07-16T04:46:53;97633.34;;;17.42;94.19
77431;BME280;66498;48.564;19.272;2023-07-16T04:49:18;97636.31;;;17.71;93.39
77431;BME280;66498;48.564;19.272;2023-07-16T04:51:44;97632.56;;;17.62;93.95
77431;BME280;66498;48.564;19.272;2023-07-16T04:54:09;97625.94;;;17.60;94.07
77431;BME280;66498;48.564;19.272;2023-07-16T04:56:35;97639.00;;;17.82;94.04
77431;BME280;66498;48.564;19.272;2023-07-16T04:59:00;97641.91;;;17.85;94.50
77431;BME280;66498;48.564;19.272;2023-07-16T05:01:25;97641.63;;;18.12;93.40
77431;BME280;66498;48.564;19.272;2023-07-16T05:03:52;97638.41;;;18.36;91.87
77431;BME280;66498;48.564;19.272;2023-07-16T05:06:17;97637.84;;;18.59;90.27
77431;BME280;66498;48.564;19.272;2023-07-16T05:08:43;97637.91;;;18.18;91.89
77431;BME280;66498;48.564;19.272;2023-07-16T05:11:08;97640.50;;;18.59;90.16
77431;BME280;66498;48.564;19.272;2023-07-16T05:13:34;97636.03;;;18.44;91.26
77431;BME280;66498;48.564;19.272;2023-07-16T05:15:59;97628.78;;;18.60;91.23
77431;BME280;66498;48.564;19.272;2023-07-16T05:18:25;97629.03;;;18.69;90.71
77431;BME280;66498;48.564;19.272;2023-07-16T05:20:50;97627.19;;;18.64;90.35
77431;BME280;66498;48.564;19.272;2023-07-16T05:23:16;97635.16;;;18.64;91.00
77431;BME280;66498;48.564;19.272;2023-07-16T05:25:49;97640.22;;;18.76;90.33
77431;BME280;66498;48.564;19.272;2023-07-16T05:28:15;97650.28;;;18.89;90.06
77431;BME280;66498;48.564;19.272;2023-07-16T05:30:41;97643.78;;;19.16;89.29
77431;BME280;66498;48.564;19.272;2023-07-16T05:33:06;97642.72;;;20.01;85.71
77431;BME280;66498;48.564;19.272;2023-07-16T05:35:32;97644.00;;;21.10;79.84
77431;BME280;66498;48.564;19.272;2023-07-16T05:37:57;97642.09;;;21.34;78.35
77431;BME280;66498;48.564;19.272;2023-07-16T05:40:23;97629.78;;;22.23;73.92
77431;BME280;66498;48.564;19.272;2023-07-16T05:42:48;97632.94;;;22.25;73.11
77431;BME280;66498;48.564;19.272;2023-07-16T05:45:14;97624.78;;;22.62;72.32
77431;BME280;66498;48.564;19.272;2023-07-16T05:47:39;97633.75;;;23.35;69.25
77431;BME280;66498;48.564;19.272;2023-07-16T05:50:05;97633.97;;;23.61;67.49
77431;BME280;66498;48.564;19.272;2023-07-16T05:52:31;97644.50;;;23.58;68.71
77431;BME280;66498;48.564;19.272;2023-07-16T05:54:57;97640.63;;;23.64;67.19
77431;BME280;66498;48.564;19.272;2023-07-16T05:57:22;97640.84;;;23.68;66.70
77431;BME280;66498;48.564;19.272;2023-07-16T05:59:48;97639.19;;;23.44;67.89
77431;BME280;66498;48.564;19.272;2023-07-16T06:02:13;97645.28;;;23.72;67.92
77431;BME280;66498;48.564;19.272;2023-07-16T06:04:39;97636.09;;;23.51;68.52
77431;BME280;66498;48.564;19.272;2023-07-16T06:07:04;97634.22;;;23.74;67.23
77431;BME280;66498;48.564;19.272;2023-07-16T06:09:30;97635.50;;;23.40;69.45
77431;BME280;66498;48.564;19.272;2023-07-16T06:11:56;97640.41;;;23.97;65.93
77431;BME280;66498;48.564;19.272;2023-07-16T06:14:21;97631.44;;;23.79;65.95
77431;BME280;66498;48.564;19.272;2023-07-16T06:16:47;97634.00;;;23.84;64.71
77431;BME280;66498;48.564;19.272;2023-07-16T06:19:12;97639.50;;;24.64;62.22
77431;BME280;66498;48.564;19.272;2023-07-16T06:21:38;97638.56;;;24.60;62.12
77431;BME280;66498;48.564;19.272;2023-07-16T06:24:03;97640.50;;;24.76;62.02
77431;BME280;66498;48.564;19.272;2023-07-16T06:26:29;97633.38;;;24.72;62.81
77431;BME280;66498;48.564;19.272;2023-07-16T06:28:54;97626.72;;;24.69;62.59
77431;BME280;66498;48.564;19.272;2023-07-16T06:31:20;97626.63;;;24.83;62.55
77431;BME280;66498;48.564;19.272;2023-07-16T06:33:45;97637.38;;;24.92;64.05
77431;BME280;66498;48.564;19.272;2023-07-16T06:36:12;97637.31;;;25.40;62.41
77431;BME280;66498;48.564;19.272;2023-07-16T06:38:38;97631.00;;;25.19;62.19
77431;BME280;66498;48.564;19.272;2023-07-16T06:41:03;97634.34;;;25.68;59.29
77431;BME280;66498;48.564;19.272;2023-07-16T06:43:29;97631.34;;;25.69;58.37
77431;BME280;66498;48.564;19.272;2023-07-16T06:45:55;97634.81;;;25.87;59.34
77431;BME280;66498;48.564;19.272;2023-07-16T06:48:20;97625.16;;;26.04;58.05
77431;BME280;66498;48.564;19.272;2023-07-16T06:50:46;97627.59;;;26.35;57.76
77431;BME280;66498;48.564;19.272;2023-07-16T06:53:11;97619.94;;;26.54;56.11
77431;BME280;66498;48.564;19.272;2023-07-16T06:55:37;97616.16;;;26.47;56.83
77431;BME280;66498;48.564;19.272;2023-07-16T06:58:03;97620.00;;;26.37;58.36
77431;BME280;66498;48.564;19.272;2023-07-16T07:00:29;97621.28;;;27.07;55.94
77431;BME280;66498;48.564;19.272;2023-07-16T07:02:54;97607.97;;;27.32;54.67
77431;BME280;66498;48.564;19.272;2023-07-16T07:05:20;97609.22;;;27.05;56.34
77431;BME280;66498;48.564;19.272;2023-07-16T07:07:46;97618.88;;;27.35;54.69
77431;BME280;66498;48.564;19.272;2023-07-16T07:10:12;97603.81;;;27.76;54.22
77431;BME280;66498;48.564;19.272;2023-07-16T07:12:39;97606.94;;;28.57;50.57
77431;BME280;66498;48.564;19.272;2023-07-16T07:15:08;97595.31;;;28.69;51.57
77431;BME280;66498;48.564;19.272;2023-07-16T07:17:34;97599.69;;;28.86;51.96
77431;BME280;66498;48.564;19.272;2023-07-16T07:20:01;97600.72;;;28.57;52.24
77431;BME280;66498;48.564;19.272;2023-07-16T07:22:27;97594.19;;;28.45;51.88
77431;BME280;66498;48.564;19.272;2023-07-16T07:24:52;97592.47;;;28.90;50.74
77431;BME280;66498;48.564;19.272;2023-07-16T07:27:20;97589.47;;;28.79;50.50
77431;BME280;66498;48.564;19.272;2023-07-16T07:29:46;97584.41;;;28.77;55.19
77431;BME280;66498;48.564;19.272;2023-07-16T07:32:12;97584.84;;;28.55;52.84
77431;BME280;66498;48.564;19.272;2023-07-16T07:34:38;97583.16;;;28.75;48.29
77431;BME280;66498;48.564;19.272;2023-07-16T07:37:04;97579.69;;;28.74;50.66
77431;BME280;66498;48.564;19.272;2023-07-16T07:39:30;97583.75;;;28.81;51.71
77431;BME280;66498;48.564;19.272;2023-07-16T07:41:55;97585.41;;;28.97;53.78
77431;BME280;66498;48.564;19.272;2023-07-16T07:44:21;97577.75;;;29.12;52.83
77431;BME280;66498;48.564;19.272;2023-07-16T07:46:46;97581.50;;;29.35;51.06
77431;BME280;66498;48.564;19.272;2023-07-16T07:49:12;97588.38;;;29.33;50.79
77431;BME280;66498;48.564;19.272;2023-07-16T07:51:37;97580.47;;;29.40;51.53
77431;BME280;66498;48.564;19.272;2023-07-16T07:54:06;97581.81;;;29.46;52.80
77431;BME280;66498;48.564;19.272;2023-07-16T07:56:32;97579.03;;;29.30;49.38
77431;BME280;66498;48.564;19.272;2023-07-16T07:58:57;97578.38;;;29.61;50.59
77431;BME280;66498;48.564;19.272;2023-07-16T08:01:23;97582.28;;;29.92;49.79
77431;BME280;66498;48.564;19.272;2023-07-16T08:03:48;97575.66;;;29.89;48.09
77431;BME280;66498;48.564;19.272;2023-07-16T08:06:14;97581.34;;;30.00;48.87
77431;BME280;66498;48.564;19.272;2023-07-16T08:08:40;97574.44;;;30.03;49.71
77431;BME280;66498;48.564;19.272;2023-07-16T08:11:05;97574.94;;;29.92;45.83
77431;BME280;66498;48.564;19.272;2023-07-16T08:13:31;97577.53;;;30.17;50.13
77431;BME280;66498;48.564;19.272;2023-07-16T08:15:57;97572.09;;;30.64;49.60
77431;BME280;66498;48.564;19.272;2023-07-16T08:18:23;97572.97;;;30.53;49.16
77431;BME280;66498;48.564;19.272;2023-07-16T08:20:48;97579.19;;;30.85;48.16
77431;BME280;66498;48.564;19.272;2023-07-16T08:23:13;97575.28;;;30.35;47.09
77431;BME280;66498;48.564;19.272;2023-07-16T08:25:39;97588.03;;;30.34;46.64
77431;BME280;66498;48.564;19.272;2023-07-16T08:28:04;97586.78;;;30.63;45.70
77431;BME280;66498;48.564;19.272;2023-07-16T08:30:32;97579.28;;;31.08;46.09
77431;BME280;66498;48.564;19.272;2023-07-16T08:32:58;97575.44;;;31.28;44.98
77431;BME280;66498;48.564;19.272;2023-07-16T08:35:23;97584.88;;;31.15;46.64
77431;BME280;66498;48.564;19.272;2023-07-16T08:37:49;97577.53;;;31.35;42.36
77431;BME280;66498;48.564;19.272;2023-07-16T08:40:15;97578.81;;;31.41;45.82
77431;BME280;66498;48.564;19.272;2023-07-16T08:42:44;97577.19;;;31.37;46.04
77431;BME280;66498;48.564;19.272;2023-07-16T08:45:11;97590.47;;;31.06;45.58
77431;BME280;66498;48.564;19.272;2023-07-16T08:47:38;97576.09;;;31.22;41.30
77431;BME280;66498;48.564;19.272;2023-07-16T08:50:05;97578.97;;;31.29;41.63
77431;BME280;66498;48.564;19.272;2023-07-16T08:52:31;97587.13;;;31.87;40.34
77431;BME280;66498;48.564;19.272;2023-07-16T08:54:57;97590.50;;;31.26;43.36
77431;BME280;66498;48.564;19.272;2023-07-16T08:57:23;97587.22;;;31.75;42.73
77431;BME280;66498;48.564;19.272;2023-07-16T08:59:51;97585.34;;;31.56;42.16
77431;BME280;66498;48.564;19.272;2023-07-16T09:02:20;97584.66;;;31.24;43.00
77431;BME280;66498;48.564;19.272;2023-07-16T09:04:50;97583.09;;;31.23;42.19
77431;BME280;66498;48.564;19.272;2023-07-16T09:07:20;97587.09;;;31.48;44.98
77431;BME280;66498;48.564;19.272;2023-07-16T09:09:56;97580.38;;;31.23;43.31
77431;BME280;66498;48.564;19.272;2023-07-16T09:12:25;97584.13;;;31.18;45.77
77431;BME280;66498;48.564;19.272;2023-07-16T09:14:51;97580.09;;;31.08;43.88
77431;BME280;66498;48.564;19.272;2023-07-16T09:17:24;97579.41;;;31.70;42.44
77431;BME280;66498;48.564;19.272;2023-07-16T09:19:51;97584.91;;;31.34;43.62
77431;BME280;66498;48.564;19.272;2023-07-16T09:22:18;97592.13;;;30.76;43.00
77431;BME280;66498;48.564;19.272;2023-07-16T09:24:48;97585.22;;;30.62;43.73
77431;BME280;66498;48.564;19.272;2023-07-16T09:27:14;97581.28;;;31.46;43.90
77431;BME280;66498;48.564;19.272;2023-07-16T09:29:40;97584.00;;;32.31;40.52
77431;BME280;66498;48.564;19.272;2023-07-16T09:32:06;97589.53;;;32.61;40.86
77431;BME280;66498;48.564;19.272;2023-07-16T09:34:32;97587.06;;;32.30;41.85
77431;BME280;66498;48.564;19.272;2023-07-16T09:37:00;97587.81;;;31.65;43.71
77431;BME280;66498;48.564;19.272;2023-07-16T09:39:27;97579.53;;;31.38;44.02
77431;BME280;66498;48.564;19.272;2023-07-16T09:41:53;97591.69;;;30.58;45.03
77431;BME280;66498;48.564;19.272;2023-07-16T09:44:19;97590.31;;;31.54;43.49
77431;BME280;66498;48.564;19.272;2023-07-16T09:46:46;97600.81;;;32.40;42.36
77431;BME280;66498;48.564;19.272;2023-07-16T09:49:15;97594.59;;;31.74;42.58
77431;BME280;66498;48.564;19.272;2023-07-16T09:51:42;97587.88;;;30.94;43.84
77431;BME280;66498;48.564;19.272;2023-07-16T09:54:09;97593.63;;;31.08;45.03
77431;BME280;66498;48.564;19.272;2023-07-16T09:56:53;97588.91;;;31.41;42.81
77431;BME280;66498;48.564;19.272;2023-07-16T09:59:23;97592.81;;;32.24;42.13
77431;BME280;66498;48.564;19.272;2023-07-16T10:01:50;97589.22;;;31.97;44.15
77431;BME280;66498;48.564;19.272;2023-07-16T10:04:19;97590.19;;;30.92;45.56
77431;BME280;66498;48.564;19.272;2023-07-16T10:06:57;97594.44;;;30.93;44.77
77431;BME280;66498;48.564;19.272;2023-07-16T10:09:39;97588.56;;;31.42;44.25
77431;BME280;66498;48.564;19.272;2023-07-16T10:12:16;97585.09;;;32.03;44.01
77431;BME280;66498;48.564;19.272;2023-07-16T10:14:50;97593.31;;;31.68;44.46
77431;BME280;66498;48.564;19.272;2023-07-16T10:17:22;97593.31;;;32.80;42.43
77431;BME280;66498;48.564;19.272;2023-07-16T10:20:15;97588.41;;;33.15;41.05
77431;BME280;66498;48.564;19.272;2023-07-16T10:22:45;97587.19;;;33.13;41.27
77431;BME280;66498;48.564;19.272;2023-07-16T10:27:45;97581.97;;;31.43;43.92
77431;BME280;66498;48.564;19.272;2023-07-16T10:30:11;97588.53;;;31.62;44.81
77431;BME280;66498;48.564;19.272;2023-07-16T10:32:37;97580.75;;;31.79;44.47
77431;BME280;66498;48.564;19.272;2023-07-16T10:35:04;97589.56;;;31.96;45.35
77431;BME280;66498;48.564;19.272;2023-07-16T10:37:30;97586.44;;;31.74;43.83
77431;BME280;66498;48.564;19.272;2023-07-16T10:40:01;97589.22;;;31.20;45.88
77431;BME280;66498;48.564;19.272;2023-07-16T10:42:31;97591.56;;;31.02;45.33
77431;BME280;66498;48.564;19.272;2023-07-16T10:45:02;97589.09;;;30.97;44.52
77431;BME280;66498;48.564;19.272;2023-07-16T10:47:32;97581.66;;;31.29;44.40
77431;BME280;66498;48.564;19.272;2023-07-16T10:49:59;97583.19;;;31.46;45.35
77431;BME280;66498;48.564;19.272;2023-07-16T10:52:25;97589.16;;;31.16;47.36
77431;BME280;66498;48.564;19.272;2023-07-16T10:54:51;97588.88;;;31.79;46.48
77431;BME280;66498;48.564;19.272;2023-07-16T10:57:21;97590.03;;;32.21;48.03
77431;BME280;66498;48.564;19.272;2023-07-16T10:59:48;97586.03;;;31.33;44.77
77431;BME280;66498;48.564;19.272;2023-07-16T11:02:17;97580.56;;;32.34;41.61
77431;BME280;66498;48.564;19.272;2023-07-16T11:04:44;97576.13;;;32.99;41.82
77431;BME280;66498;48.564;19.272;2023-07-16T11:07:11;97573.72;;;33.24;40.67
77431;BME280;66498;48.564;19.272;2023-07-16T11:09:46;97569.97;;;33.35;41.21
77431;BME280;66498;48.564;19.272;2023-07-16T11:12:14;97567.22;;;33.02;40.66
77431;BME280;66498;48.564;19.272;2023-07-16T11:14:46;97573.31;;;33.21;40.27
77431;BME280;66498;48.564;19.272;2023-07-16T11:17:13;97566.38;;;32.71;40.89
77431;BME280;66498;48.564;19.272;2023-07-16T11:19:40;97582.50;;;31.49;44.81
77431;BME280;66498;48.564;19.272;2023-07-16T11:22:07;97576.41;;;30.81;44.40
77431;BME280;66498;48.564;19.272;2023-07-16T11:24:45;97581.81;;;30.50;48.28
77431;BME280;66498;48.564;19.272;2023-07-16T11:27:18;97583.03;;;30.36;46.81
77431;BME280;66498;48.564;19.272;2023-07-16T11:29:58;97574.13;;;31.03;48.93
77431;BME280;66498;48.564;19.272;2023-07-16T11:32:31;97579.66;;;31.65;43.53
77431;BME280;66498;48.564;19.272;2023-07-16T11:34:58;97588.59;;;32.77;43.15
77431;BME280;66498;48.564;19.272;2023-07-16T11:37:25;97580.50;;;32.80;40.94
77431;BME280;66498;48.564;19.272;2023-07-16T11:40:02;97572.31;;;33.67;40.32
77431;BME280;66498;48.564;19.272;2023-07-16T11:42:30;97568.44;;;34.05;41.25
77431;BME280;66498;48.564;19.272;2023-07-16T11:44:57;97568.97;;;33.81;42.07
77431;BME280;66498;48.564;19.272;2023-07-16T11:47:23;97560.63;;;34.00;40.25
77431;BME280;66498;48.564;19.272;2023-07-16T11:49:49;97564.06;;;32.96;43.68
77431;BME280;66498;48.564;19.272;2023-07-16T11:52:22;97568.06;;;33.06;42.39
77431;BME280;66498;48.564;19.272;2023-07-16T11:54:49;97555.78;;;33.49;38.86
77431;BME280;66498;48.564;19.272;2023-07-16T11:57:15;97563.88;;;33.45;37.76
77431;BME280;66498;48.564;19.272;2023-07-16T11:59:41;97564.03;;;33.56;40.09
77431;BME280;66498;48.564;19.272;2023-07-16T12:02:08;97565.56;;;34.32;38.28
77431;BME280;66498;48.564;19.272;2023-07-16T12:04:34;97561.75;;;34.47;38.24
77431;BME280;66498;48.564;19.272;2023-07-16T12:07:00;97557.19;;;35.21;37.33
77431;BME280;66498;48.564;19.272;2023-07-16T12:09:26;97559.97;;;34.14;36.96
77431;BME280;66498;48.564;19.272;2023-07-16T12:11:51;97563.84;;;33.12;40.10
77431;BME280;66498;48.564;19.272;2023-07-16T12:14:17;97563.41;;;32.53;40.21
77431;BME280;66498;48.564;19.272;2023-07-16T12:16:43;97559.53;;;33.07;38.39
77431;BME280;66498;48.564;19.272;2023-07-16T12:19:09;97563.81;;;32.55;43.80
77431;BME280;66498;48.564;19.272;2023-07-16T12:21:35;97554.97;;;31.70;44.57
77431;BME280;66498;48.564;19.272;2023-07-16T12:24:01;97549.84;;;31.45;43.58
77431;BME280;66498;48.564;19.272;2023-07-16T12:26:27;97545.25;;;31.10;46.69
77431;BME280;66498;48.564;19.272;2023-07-16T12:28:53;97548.16;;;30.82;43.58
77431;BME280;66498;48.564;19.272;2023-07-16T12:31:19;97552.38;;;30.16;49.29
77431;BME280;66498;48.564;19.272;2023-07-16T12:33:46;97558.06;;;30.27;43.91
77431;BME280;66498;48.564;19.272;2023-07-16T12:36:12;97548.16;;;30.67;46.00
77431;BME280;66498;48.564;19.272;2023-07-16T12:38:38;97552.03;;;30.18;45.64
77431;BME280;66498;48.564;19.272;2023-07-16T12:41:04;97553.69;;;29.63;48.63
77431;BME280;66498;48.564;19.272;2023-07-16T12:43:29;97544.94;;;30.13;45.68
77431;BME280;66498;48.564;19.272;2023-07-16T12:45:57;97546.50;;;29.99;46.28
77431;BME280;66498;48.564;19.272;2023-07-16T12:48:23;97548.59;;;30.53;45.88
77431;BME280;66498;48.564;19.272;2023-07-16T12:50:49;97550.00;;;30.47;44.82
77431;BME280;66498;48.564;19.272;2023-07-16T12:53:15;97552.00;;;31.36;43.92
77431;BME280;66498;48.564;19.272;2023-07-16T12:55:40;97548.34;;;31.67;43.48
77431;BME280;66498;48.564;19.272;2023-07-16T12:58:06;97553.91;;;31.16;43.69